Time;durP1;ratioP1;P1;durP2;ratioP2;P2;SDS_P1;SDS_P2;PMS_P1;PMS_P2;Temp;Humidity;BMP_temperature;BMP_pressure;BME280_temperature;BME280_humidity;BME280_pressure;Samples;Min_cycle;Max_cycle;Signal;HPM_P1;HPM_P2
2022/08/05 00:01:26;;;;;;;;;;;;;;;;;;4893122;29;19931;-75
2022/08/05 00:03:55;;;;;;;;;;;;;;;;;;4890921;29;19969;-75
2022/08/05 00:06:23;;;;;;;;;;;;;;;;;;4891250;29;19936;-75
2022/08/05 00:08:55;;;;;;;;;;;;;;;;;;4886144;29;19939;-75
2022/08/05 00:11:22;;;;;;;;;;;;;;;;;;4896733;29;19935;-75
2022/08/05 00:13:56;;;;;;;;;;;;;;;;;;4894236;29;20316;-75
2022/08/05 00:16:23;;;;;;;;;;;;;;;;;;4892310;29;19935;-75
2022/08/05 00:19:02;;;;;;;;;;;;;;;;;;4891785;29;19935;-75
2022/08/05 00:21:29;;;;;;;;;;;;;;;;;;4897877;29;20215;-75
2022/08/05 00:23:59;;;;;;;;;;;;;;;;;;4890489;29;19941;-75
2022/08/05 00:26:36;;;;;;;;;;;;;;;;;;4890862;29;19928;-75
2022/08/05 00:29:03;;;;;;;;;;;;;;;;;;4886334;29;19938;-76
2022/08/05 00:31:30;;;;;;;;;;;;;;;;;;4894318;29;19927;-75
2022/08/05 00:34:18;;;;;;;;;;;;;;;;;;4892304;29;19935;-75
2022/08/05 00:37:05;;;;;;;;;;;;;;;;;;4893174;29;20042;-75
2022/08/05 00:39:39;;;;;;;;;;;;;;;;;;4890599;29;19939;-75
2022/08/05 00:42:07;;;;;;;;;;;;;;;;;;4896255;29;19991;-75
2022/08/05 00:44:35;;;;;;;;;;;;;;;;;;4892337;29;20356;-75
2022/08/05 00:47:02;;;;;;;;;;;;;;;;;;4892533;29;20082;-75
2022/08/05 00:49:30;;;;;;;;;;;;;;;;;;4892935;29;20022;-75
2022/08/05 00:51:58;;;;;;;;;;;;;;;;;;4891655;29;19932;-76
2022/08/05 00:54:26;;;;;;;;;;;;;;;;;;4893080;29;19931;-76
2022/08/05 00:56:54;;;;;;;;;;;;;;;;;;4891593;29;19971;-76
2022/08/05 00:59:21;;;;;;;;;;;;;;;;;;4895596;29;19935;-76
2022/08/05 01:01:48;;;;;;;;;;;;;;;;;;4996260;23;19974;-70
2022/08/05 01:04:16;;;;;;;;;;;;;;;;;;4909488;29;19930;-70
2022/08/05 01:06:46;;;;;;;;;;;;;;;;;;4909524;29;20458;-70
2022/08/05 01:09:15;;;;;;;;;;;;;;;;;;4902507;29;19970;-71
2022/08/05 01:11:43;;;;;;;;;;;;;;;;;;4874099;29;20016;-71
2022/08/05 01:14:10;;;;;;;;;;;;;;;;;;4878004;29;19931;-71
2022/08/05 01:16:38;;;;;;;;;;;;;;;;;;4882713;29;19959;-71
2022/08/05 01:19:05;;;;;;;;;;;;;;;;;;4885663;29;19962;-71
2022/08/05 01:21:32;;;;;;;;;;;;;;;;;;4862623;29;19947;-71
2022/08/05 01:24:04;;;;;;;;;;;;;;;;;;4894471;29;19928;-71
2022/08/05 01:26:39;;;;;;;;;;;;;;;;;;4883516;29;19979;-71
2022/08/05 01:29:06;;;;;;;;;;;;;;;;;;4881497;29;19932;-71
2022/08/05 01:31:33;;;;;;;;;;;;;;;;;;4884694;29;19937;-71
2022/08/05 01:34:08;;;;;;;;;;;;;;;;;;4883395;29;19954;-71
2022/08/05 01:36:35;;;;;;;;;;;;;;;;;;4875903;29;19935;-71
2022/08/05 01:39:03;;;;;;;;;;;;;;;;;;4890093;29;19931;-71
2022/08/05 01:41:30;;;;;;;;;;;;;;;;;;4887046;29;19932;-71
2022/08/05 01:43:57;;;;;;;;;;;;;;;;;;4880378;29;20067;-71
2022/08/05 01:46:25;;;;;;;;;;;;;;;;;;4873331;29;19931;-72
2022/08/05 01:49:09;;;;;;;;;;;;;;;;;;4887963;29;19988;-72
2022/08/05 01:51:49;;;;;;;;;;;;;;;;;;4881167;29;19932;-72
2022/08/05 01:54:18;;;;;;;;;;;;;;;;;;4885173;29;19928;-72
2022/08/05 01:56:45;;;;;;;;;;;;;;;;;;4888852;29;19935;-72
2022/08/05 01:59:32;;;;;;;;;;;;;;;;;;4888179;29;19932;-72
2022/08/05 02:02:01;;;;;;;;;;;;;;;;;;4878133;29;21465;-72
2022/08/05 02:04:28;;;;;;;;;;;;;;;;;;4892668;29;20018;-72
2022/08/05 02:06:56;;;;;;;;;;;;;;;;;;4889572;29;19932;-71
2022/08/05 02:09:23;;;;;;;;;;;;;;;;;;4887550;29;19942;-71
2022/08/05 02:11:50;;;;;;;;;;;;;;;;;;4889831;29;19931;-72
2022/08/05 02:14:18;;;;;;;;;;;;;;;;;;4888042;29;20299;-71
2022/08/05 02:16:46;;;;;;;;;;;;;;;;;;4890812;29;19931;-71
2022/08/05 02:19:13;;;;;;;;;;;;;;;;;;4889052;29;19927;-71
2022/08/05 02:21:40;;;;;;;;;;;;;;;;;;4875451;29;19935;-71
2022/08/05 02:24:12;;;;;;;;;;;;;;;;;;4891270;29;19939;-71
2022/08/05 02:26:40;;;;;;;;;;;;;;;;;;4874941;29;20175;-72
2022/08/05 02:29:07;;;;;;;;;;;;;;;;;;4874405;29;20003;-71
2022/08/05 02:31:47;;;;;;;;;;;;;;;;;;4887112;29;19931;-71
2022/08/05 02:34:14;;;;;;;;;;;;;;;;;;4891386;29;19938;-70
2022/08/05 02:36:42;;;;;;;;;;;;;;;;;;4880369;29;19927;-71
2022/08/05 02:39:09;;;;;;;;;;;;;;;;;;4889541;29;19939;-70
2022/08/05 02:41:37;;;;;;;;;;;;;;;;;;4890139;29;20344;-71
2022/08/05 02:44:24;;;;;;;;;;;;;;;;;;4874175;29;20254;-70
2022/08/05 02:46:51;;;;;;;;;;;;;;;;;;4873187;29;20331;-71
2022/08/05 02:49:25;;;;;;;;;;;;;;;;;;4891980;29;19931;-73
2022/08/05 02:51:52;;;;;;;;;;;;;;;;;;4890814;29;19937;-70
2022/08/05 02:54:30;;;;;;;;;;;;;;;;;;4880137;29;20356;-70
2022/08/05 02:57:01;;;;;;;;;;;;;;;;;;4887093;29;19938;-70
2022/08/05 02:59:29;;;;;;;;;;;;;;;;;;4884663;29;19928;-71
2022/08/05 03:01:59;;;;;;;;;;;;;;;;;;4877381;29;20026;-71
2022/08/05 03:04:26;;;;;;;;;;;;;;;;;;4872595;29;20368;-71
2022/08/05 03:06:54;;;;;;;;;;;;;;;;;;4871629;29;20694;-71
2022/08/05 03:09:25;;;;;;;;;;;;;;;;;;4879634;29;19934;-71
2022/08/05 03:11:53;;;;;;;;;;;;;;;;;;4872260;29;19928;-71
2022/08/05 03:14:24;;;;;;;;;;;;;;;;;;4880725;29;20400;-71
2022/08/05 03:16:52;;;;;;;;;;;;;;;;;;4881546;29;19979;-72
2022/08/05 03:19:19;;;;;;;;;;;;;;;;;;4882331;29;19943;-72
2022/08/05 03:22:00;;;;;;;;;;;;;;;;;;4888156;29;20042;-72
2022/08/05 03:24:28;;;;;;;;;;;;;;;;;;4881754;29;19935;-71
2022/08/05 03:26:56;;;;;;;;;;;;;;;;;;4886696;29;19936;-71
2022/08/05 03:29:24;;;;;;;;;;;;;;;;;;4872061;29;19958;-71
2022/08/05 03:32:11;;;;;;;;;;;;;;;;;;4884807;29;20015;-71
2022/08/05 03:34:38;;;;;;;;;;;;;;;;;;4882309;29;20396;-71
2022/08/05 03:37:06;;;;;;;;;;;;;;;;;;4882764;29;19928;-72
2022/08/05 03:39:33;;;;;;;;;;;;;;;;;;4890210;29;19932;-72
2022/08/05 03:42:13;;;;;;;;;;;;;;;;;;4889330;29;19931;-71
2022/08/05 03:44:40;;;;;;;;;;;;;;;;;;4886127;29;20388;-72
2022/08/05 03:47:07;;;;;;;;;;;;;;;;;;4886539;29;19936;-71
2022/08/05 03:49:35;;;;;;;;;;;;;;;;;;4880052;29;19928;-72
2022/08/05 03:52:17;;;;;;;;;;;;;;;;;;4883179;29;19943;-71
2022/08/05 03:55:05;;;;;;;;;;;;;;;;;;4881493;29;19928;-71
2022/08/05 03:57:52;;;;;;;;;;;;;;;;;;4890999;29;20001;-71
2022/08/05 04:00:28;;;;;;;;;;;;;;;;;;4888231;29;19931;-72
2022/08/05 04:02:55;;;;;;;;;;;;;;;;;;4861743;29;19932;-72
2022/08/05 04:05:24;;;;;;;;;;;;;;;;;;4876688;29;19932;-72
2022/08/05 04:07:52;;;;;;;;;;;;;;;;;;4874040;29;19931;-72
2022/08/05 04:10:24;;;;;;;;;;;;;;;;;;4892813;29;20399;-72
2022/08/05 04:12:54;;;;;;;;;;;;;;;;;;4891735;29;19927;-71
2022/08/05 04:15:21;;;;;;;;;;;;;;;;;;4873226;29;19928;-72
2022/08/05 04:17:50;;;;;;;;;;;;;;;;;;4883938;29;19931;-72
2022/08/05 04:20:22;;;;;;;;;;;;;;;;;;4892002;29;19938;-72
2022/08/05 04:22:49;;;;;;;;;;;;;;;;;;4893107;29;19938;-71
2022/08/05 04:25:16;;;;;;;;;;;;;;;;;;4884486;29;19932;-71
2022/08/05 04:27:44;;;;;;;;;;;;;;;;;;4874843;29;19928;-71
2022/08/05 04:30:23;;;;;;;;;;;;;;;;;;4893514;29;20030;-72
2022/08/05 04:32:50;;;;;;;;;;;;;;;;;;4886991;29;19934;-72
2022/08/05 04:35:18;;;;;;;;;;;;;;;;;;4888346;29;19977;-71
2022/08/05 04:37:46;;;;;;;;;;;;;;;;;;4891739;29;20031;-72
2022/08/05 04:40:29;;;;;;;;;;;;;;;;;;4876942;29;19951;-72
2022/08/05 04:42:56;;;;;;;;;;;;;;;;;;4884667;29;19927;-71
2022/08/05 04:45:24;;;;;;;;;;;;;;;;;;4886566;29;20025;-72
2022/08/05 04:48:12;;;;;;;;;;;;;;;;;;4884191;29;20323;-72
2022/08/05 04:50:44;;;;;;;;;;;;;;;;;;4887806;29;19931;-72
2022/08/05 04:53:28;;;;;;;;;;;;;;;;;;4883787;29;19935;-72
2022/08/05 04:55:55;;;;;;;;;;;;;;;;;;4890721;29;19927;-72
2022/08/05 04:58:41;;;;;;;;;;;;;;;;;;4887171;29;20030;-72
2022/08/05 05:01:09;;;;;;;;;;;;;;;;;;4890919;29;19934;-71
2022/08/05 05:03:36;;;;;;;;;;;;;;;;;;4890736;29;19935;-72
2022/08/05 05:06:08;;;;;;;;;;;;;;;;;;4892153;29;20659;-71
2022/08/05 05:08:55;;;;;;;;;;;;;;;;;;4879461;29;19954;-72
2022/08/05 05:11:22;;;;;;;;;;;;;;;;;;4885093;29;20315;-72
2022/08/05 05:13:50;;;;;;;;;;;;;;;;;;4880879;29;20026;-72
2022/08/05 05:16:17;;;;;;;;;;;;;;;;;;4880125;29;19931;-72
2022/08/05 05:18:45;;;;;;;;;;;;;;;;;;4892705;29;19954;-72
2022/08/05 05:21:33;;;;;;;;;;;;;;;;;;4882286;29;20383;-72
2022/08/05 05:24:00;;;;;;;;;;;;;;;;;;4892926;29;19938;-72
2022/08/05 05:26:30;;;;;;;;;;;;;;;;;;4884516;29;20002;-72
2022/08/05 05:28:59;;;;;;;;;;;;;;;;;;4895033;29;20014;-72
2022/08/05 05:31:27;;;;;;;;;;;;;;;;;;4882375;29;19935;-73
2022/08/05 05:33:58;;;;;;;;;;;;;;;;;;4882170;29;19941;-73
2022/08/05 05:36:28;;;;;;;;;;;;;;;;;;4887030;29;19936;-72
2022/08/05 05:38:56;;;;;;;;;;;;;;;;;;4891113;29;19939;-72
2022/08/05 05:41:23;;;;;;;;;;;;;;;;;;4887438;29;19938;-72
2022/08/05 05:43:51;;;;;;;;;;;;;;;;;;4870147;29;21081;-71
2022/08/05 05:46:24;;;;;;;;;;;;;;;;;;4878712;29;19931;-73
2022/08/05 05:48:52;;;;;;;;;;;;;;;;;;4888082;29;19946;-73
2022/08/05 05:51:19;;;;;;;;;;;;;;;;;;4890336;29;20361;-71
2022/08/05 05:53:46;;;;;;;;;;;;;;;;;;4876868;29;19932;-73
2022/08/05 05:56:24;;;;;;;;;;;;;;;;;;4889394;29;20022;-73
2022/08/05 05:58:57;;;;;;;;;;;;;;;;;;4890299;29;20060;-73
2022/08/05 06:01:29;;;;;;;;;;;;;;;;;;4888570;29;20575;-72
2022/08/05 06:04:04;;;;;;;;;;;;;;;;;;4891195;29;20471;-73
2022/08/05 06:06:31;;;;;;;;;;;;;;;;;;4893216;29;20324;-73
2022/08/05 06:09:00;;;;;;;;;;;;;;;;;;4892264;29;20018;-72
2022/08/05 06:11:28;;;;;;;;;;;;;;;;;;4893314;29;20415;-73
2022/08/05 06:13:55;;;;;;;;;;;;;;;;;;4890161;29;20458;-73
2022/08/05 06:16:22;;;;;;;;;;;;;;;;;;4893670;29;19971;-73
2022/08/05 06:18:57;;;;;;;;;;;;;;;;;;4889467;29;19938;-72
2022/08/05 06:21:26;;;;;;;;;;;;;;;;;;4893491;29;20388;-72
2022/08/05 06:24:01;;;;;;;;;;;;;;;;;;4894359;29;20007;-73
2022/08/05 06:26:29;;;;;;;;;;;;;;;;;;4889386;29;20377;-73
2022/08/05 06:28:59;;;;;;;;;;;;;;;;;;4892401;29;20395;-73
2022/08/05 06:31:29;;;;;;;;;;;;;;;;;;4893370;29;19963;-73
2022/08/05 06:33:58;;;;;;;;;;;;;;;;;;4893803;29;19931;-72
2022/08/05 06:36:34;;;;;;;;;;;;;;;;;;4892963;29;19971;-73
2022/08/05 06:39:19;;;;;;;;;;;;;;;;;;4893214;29;19931;-73
2022/08/05 06:41:48;;;;;;;;;;;;;;;;;;4893449;29;19939;-73
2022/08/05 06:44:15;;;;;;;;;;;;;;;;;;4893676;29;20029;-73
2022/08/05 06:46:42;;;;;;;;;;;;;;;;;;4887113;29;19931;-73
2022/08/05 06:49:10;;;;;;;;;;;;;;;;;;4892831;29;19931;-72
2022/08/05 06:51:38;;;;;;;;;;;;;;;;;;4893289;29;20312;-72
2022/08/05 06:54:07;;;;;;;;;;;;;;;;;;4893173;29;20392;-72
2022/08/05 06:56:34;;;;;;;;;;;;;;;;;;4892978;29;19942;-72
2022/08/05 06:59:01;;;;;;;;;;;;;;;;;;4891473;29;20030;-73
2022/08/05 07:01:28;;;;;;;;;;;;;;;;;;4912427;23;19939;-72
2022/08/05 07:03:58;;;;;;;;;;;;;;;;;;4892900;29;20022;-73
2022/08/05 07:06:26;;;;;;;;;;;;;;;;;;4878212;29;20002;-73
2022/08/05 07:08:53;;;;;;;;;;;;;;;;;;4877065;29;19932;-72
2022/08/05 07:11:21;;;;;;;;;;;;;;;;;;4879366;29;19940;-72
2022/08/05 07:16:49;;;;;;;;;;;;;;;;;;4879185;29;19967;-72
2022/08/05 07:19:36;;;;;;;;;;;;;;;;;;4874758;29;20471;-73
2022/08/05 07:22:24;;;;;;;;;;;;;;;;;;4880553;29;19991;-73
2022/08/05 07:24:55;;;;;;;;;;;;;;;;;;4879202;29;19943;-72
2022/08/05 07:27:22;;;;;;;;;;;;;;;;;;4863228;29;19975;-74
2022/08/05 07:29:53;;;;;;;;;;;;;;;;;;4877019;29;19936;-72
2022/08/05 07:32:40;;;;;;;;;;;;;;;;;;4876963;29;19928;-73
2022/08/05 07:35:08;;;;;;;;;;;;;;;;;;4877202;29;19932;-72
2022/08/05 07:37:55;;;;;;;;;;;;;;;;;;4877460;29;19982;-73
2022/08/05 07:40:22;;;;;;;;;;;;;;;;;;4879363;29;19932;-73
2022/08/05 07:42:53;;;;;;;;;;;;;;;;;;4861279;29;19955;-73
2022/08/05 07:45:20;;;;;;;;;;;;;;;;;;4878064;29;20392;-73
2022/08/05 07:48:08;;;;;;;;;;;;;;;;;;4877666;29;19952;-72
2022/08/05 07:50:35;;;;;;;;;;;;;;;;;;4876919;29;20039;-73
2022/08/05 07:53:02;;;;;;;;;;;;;;;;;;4878642;29;19990;-72
2022/08/05 07:55:30;;;;;;;;;;;;;;;;;;4861710;29;20334;-73
2022/08/05 07:58:10;;;;;;;;;;;;;;;;;;4877334;29;19939;-73
2022/08/05 08:00:58;;;;;;;;;;;;;;;;;;4873574;29;20349;-73
2022/08/05 08:03:25;;;;;;;;;;;;;;;;;;4873453;29;19932;-71
2022/08/05 08:06:10;;;;;;;;;;;;;;;;;;4874890;29;19928;-72
2022/08/05 08:08:38;;;;;;;;;;;;;;;;;;4876067;29;19927;-73
2022/08/05 08:11:05;;;;;;;;;;;;;;;;;;4877224;29;19970;-72
2022/08/05 08:13:35;;;;;;;;;;;;;;;;;;4877940;29;19928;-73
2022/08/05 08:16:15;;;;;;;;;;;;;;;;;;4875400;29;20007;-72
2022/08/05 08:19:02;;;;;;;;;;;;;;;;;;4874025;29;19955;-73
2022/08/05 08:21:29;;;;;;;;;;;;;;;;;;4874570;29;20378;-74
2022/08/05 08:23:56;;;;;;;;;;;;;;;;;;4878185;29;19935;-73
2022/08/05 08:26:29;;;;;;;;;;;;;;;;;;4878644;29;19936;-73
2022/08/05 08:28:56;;;;;;;;;;;;;;;;;;4879948;29;20255;-73
2022/08/05 08:31:26;;;;;;;;;;;;;;;;;;4878002;29;19928;-73
2022/08/05 08:33:53;;;;;;;;;;;;;;;;;;4877882;29;19927;-73
2022/08/05 08:36:20;;;;;;;;;;;;;;;;;;4875714;29;19959;-71
2022/08/05 08:39:06;;;;;;;;;;;;;;;;;;4875264;29;20076;-72
2022/08/05 08:41:41;;;;;;;;;;;;;;;;;;4862018;29;19934;-72
2022/08/05 08:44:17;;;;;;;;;;;;;;;;;;4877285;29;20030;-72
2022/08/05 08:47:05;;;;;;;;;;;;;;;;;;4879246;29;20300;-73
2022/08/05 08:49:48;;;;;;;;;;;;;;;;;;4879370;29;19932;-73
2022/08/05 08:52:36;;;;;;;;;;;;;;;;;;4890699;29;19960;-73
2022/08/05 08:55:03;;;;;;;;;;;;;;;;;;4886061;29;19966;-75
2022/08/05 08:57:39;;;;;;;;;;;;;;;;;;4881700;29;20435;-74
2022/08/05 09:00:15;;;;;;;;;;;;;;;;;;4882592;29;19935;-74
2022/08/05 09:02:45;;;;;;;;;;;;;;;;;;4883250;29;19939;-73
2022/08/05 09:05:12;;;;;;;;;;;;;;;;;;4881822;29;19982;-74
2022/08/05 09:07:43;;;;;;;;;;;;;;;;;;4880354;29;20305;-72
2022/08/05 09:10:23;;;;;;;;;;;;;;;;;;4879182;29;20004;-73
2022/08/05 09:12:53;;;;;;;;;;;;;;;;;;4875166;29;19936;-72
2022/08/05 09:15:21;;;;;;;;;;;;;;;;;;4886021;29;20391;-73
2022/08/05 09:17:48;;;;;;;;;;;;;;;;;;4868004;29;20027;-74
2022/08/05 09:20:16;;;;;;;;;;;;;;;;;;4878249;29;19943;-72
2022/08/05 09:23:02;;;;;;;;;;;;;;;;;;4875249;29;20022;-71
2022/08/05 09:25:31;;;;;;;;;;;;;;;;;;4870522;29;19927;-73
2022/08/05 09:28:18;;;;;;;;;;;;;;;;;;4886538;29;19942;-73
2022/08/05 09:30:47;;;;;;;;;;;;;;;;;;4873959;29;19932;-73
2022/08/05 09:33:15;;;;;;;;;;;;;;;;;;4881171;29;19960;-73
2022/08/05 09:35:43;;;;;;;;;;;;;;;;;;4870834;29;19932;-71
2022/08/05 09:38:10;;;;;;;;;;;;;;;;;;4877526;29;20000;-73
2022/08/05 09:40:44;;;;;;;;;;;;;;;;;;4876985;29;19932;-72
2022/08/05 09:43:20;;;;;;;;;;;;;;;;;;4865179;29;20039;-71
2022/08/05 09:45:47;;;;;;;;;;;;;;;;;;4869404;29;19953;-71
2022/08/05 09:48:34;;;;;;;;;;;;;;;;;;4871472;29;19932;-71
2022/08/05 09:51:01;;;;;;;;;;;;;;;;;;4863293;29;19931;-71
2022/08/05 09:53:28;;;;;;;;;;;;;;;;;;4853752;29;20336;-71
2022/08/05 09:56:16;;;;;;;;;;;;;;;;;;4868824;29;19943;-72
2022/08/05 09:58:43;;;;;;;;;;;;;;;;;;4870318;29;19943;-72
2022/08/05 10:01:10;;;;;;;;;;;;;;;;;;4871605;29;20312;-71
2022/08/05 10:03:41;;;;;;;;;;;;;;;;;;4871444;29;20349;-71
2022/08/05 10:06:26;;;;;;;;;;;;;;;;;;4869382;29;19935;-71
2022/08/05 10:08:53;;;;;;;;;;;;;;;;;;4870468;29;19986;-71
2022/08/05 10:11:21;;;;;;;;;;;;;;;;;;4875228;29;19934;-71
2022/08/05 10:13:50;;;;;;;;;;;;;;;;;;4871093;29;19929;-71
2022/08/05 10:16:20;;;;;;;;;;;;;;;;;;4864734;29;20353;-71
2022/08/05 10:18:48;;;;;;;;;;;;;;;;;;4873341;29;19927;-72
2022/08/05 10:21:15;;;;;;;;;;;;;;;;;;4877367;29;19970;-72
2022/08/05 10:23:42;;;;;;;;;;;;;;;;;;4875254;29;19932;-71
2022/08/05 10:26:25;;;;;;;;;;;;;;;;;;4871177;29;19932;-72
2022/08/05 10:28:57;;;;;;;;;;;;;;;;;;4874314;29;19928;-72
2022/08/05 10:31:25;;;;;;;;;;;;;;;;;;4868322;29;20384;-71
2022/08/05 10:34:13;;;;;;;;;;;;;;;;;;4867967;29;19932;-72
2022/08/05 10:36:40;;;;;;;;;;;;;;;;;;4866519;29;19932;-73
2022/08/05 10:39:07;;;;;;;;;;;;;;;;;;4863168;29;19960;-73
2022/08/05 10:41:37;;;;;;;;;;;;;;;;;;4868091;29;19931;-74
2022/08/05 10:44:11;;;;;;;;;;;;;;;;;;4868081;29;19928;-71
2022/08/05 10:46:38;;;;;;;;;;;;;;;;;;4867937;29;19968;-72
2022/08/05 10:49:06;;;;;;;;;;;;;;;;;;4874074;29;19978;-72
2022/08/05 10:51:36;;;;;;;;;;;;;;;;;;4863085;29;20353;-72
2022/08/05 10:54:06;;;;;;;;;;;;;;;;;;4871348;29;19936;-71
2022/08/05 10:56:57;;;;;;;;;;;;;;;;;;4863811;29;20129;-70
2022/08/05 10:59:24;;;;;;;;;;;;;;;;;;4863601;29;20304;-71
2022/08/05 11:02:12;;;;;;;;;;;;;;;;;;4868227;29;19931;-71
2022/08/05 11:04:59;;;;;;;;;;;;;;;;;;4865989;29;20605;-71
2022/08/05 11:07:26;;;;;;;;;;;;;;;;;;4865432;29;19946;-70
2022/08/05 11:10:01;;;;;;;;;;;;;;;;;;4864773;29;20467;-71
2022/08/05 11:12:37;;;;;;;;;;;;;;;;;;4864891;29;20439;-71
2022/08/05 11:15:04;;;;;;;;;;;;;;;;;;4866038;29;19938;-72
2022/08/05 11:17:45;;;;;;;;;;;;;;;;;;4874304;29;20428;-72
2022/08/05 11:20:26;;;;;;;;;;;;;;;;;;4873900;29;19935;-73
2022/08/05 11:22:53;;;;;;;;;;;;;;;;;;4866340;29;20418;-72
2022/08/05 11:25:25;;;;;;;;;;;;;;;;;;4867548;29;20404;-72
2022/08/05 11:28:12;;;;;;;;;;;;;;;;;;4872118;29;20432;-74
2022/08/05 11:30:43;;;;;;;;;;;;;;;;;;4862136;29;19932;-73
2022/08/05 11:33:13;;;;;;;;;;;;;;;;;;4872647;29;19955;-72
2022/08/05 11:35:47;;;;;;;;;;;;;;;;;;4861172;29;20420;-73
2022/08/05 11:38:34;;;;;;;;;;;;;;;;;;4862796;29;20337;-72
2022/08/05 11:41:03;;;;;;;;;;;;;;;;;;4866500;29;19950;-72
2022/08/05 11:43:50;;;;;;;;;;;;;;;;;;4867336;29;19931;-75
2022/08/05 11:46:33;;;;;;;;;;;;;;;;;;4862191;29;20004;-72
2022/08/05 11:49:00;;;;;;;;;;;;;;;;;;4863529;29;20030;-73
2022/08/05 11:51:27;;;;;;;;;;;;;;;;;;4861821;29;19992;-72
2022/08/05 11:54:11;;;;;;;;;;;;;;;;;;4859507;29;19931;-73
2022/08/05 11:56:38;;;;;;;;;;;;;;;;;;4859512;29;19939;-72
2022/08/05 11:59:07;;;;;;;;;;;;;;;;;;4862097;29;20464;-71
2022/08/05 12:01:40;;;;;;;;;;;;;;;;;;4863935;29;20442;-73
2022/08/05 12:04:07;;;;;;;;;;;;;;;;;;4869508;29;19936;-73
2022/08/05 12:06:34;;;;;;;;;;;;;;;;;;4862993;29;19967;-71
2022/08/05 12:09:02;;;;;;;;;;;;;;;;;;4860281;29;21117;-71
2022/08/05 12:11:30;;;;;;;;;;;;;;;;;;4871164;29;19964;-73
2022/08/05 12:14:10;;;;;;;;;;;;;;;;;;4870163;29;19936;-72
2022/08/05 12:16:37;;;;;;;;;;;;;;;;;;4861292;29;20395;-73
2022/08/05 12:19:04;;;;;;;;;;;;;;;;;;4863787;29;20023;-73
2022/08/05 12:21:32;;;;;;;;;;;;;;;;;;4869773;29;19928;-73
2022/08/05 12:23:59;;;;;;;;;;;;;;;;;;4866948;29;20171;-73
2022/08/05 12:26:32;;;;;;;;;;;;;;;;;;4864802;29;20031;-72
2022/08/05 12:28:59;;;;;;;;;;;;;;;;;;4870676;29;19942;-73
2022/08/05 12:31:27;;;;;;;;;;;;;;;;;;4859058;29;20018;-73
2022/08/05 12:33:59;;;;;;;;;;;;;;;;;;4876340;29;19939;-72
2022/08/05 12:36:27;;;;;;;;;;;;;;;;;;4857002;29;19938;-72
2022/08/05 12:38:54;;;;;;;;;;;;;;;;;;4873982;29;19935;-73
2022/08/05 12:41:21;;;;;;;;;;;;;;;;;;4864163;29;19932;-73
2022/08/05 12:43:49;;;;;;;;;;;;;;;;;;4863851;29;20031;-73
2022/08/05 12:46:16;;;;;;;;;;;;;;;;;;4863663;29;20149;-73
2022/08/05 12:48:44;;;;;;;;;;;;;;;;;;4867098;29;19927;-73
2022/08/05 12:51:11;;;;;;;;;;;;;;;;;;4878426;29;19938;-74
2022/08/05 12:53:47;;;;;;;;;;;;;;;;;;4865125;29;19928;-74
2022/08/05 12:56:22;;;;;;;;;;;;;;;;;;4881686;29;19936;-73
2022/08/05 12:59:00;;;;;;;;;;;;;;;;;;4887957;29;19967;-74
2022/08/05 13:01:40;;;;;;;;;;;;;;;;;;;;;
2022/08/05 13:04:11;;;;;;;;;;;;;;;;;;4884716;29;19931;-72
2022/08/05 13:06:38;;;;;;;;;;;;;;;;;;4881435;29;19932;-72
2022/08/05 13:09:06;;;;;;;;;;;;;;;;;;4892226;29;19928;-71
2022/08/05 13:11:33;;;;;;;;;;;;;;;;;;4889688;29;19943;-72
2022/08/05 13:14:21;;;;;;;;;;;;;;;;;;4879124;29;20526;-71
2022/08/05 13:16:51;;;;;;;;;;;;;;;;;;4881037;29;19938;-72
2022/08/05 13:19:18;;;;;;;;;;;;;;;;;;4877355;29;19928;-72
2022/08/05 13:21:46;;;;;;;;;;;;;;;;;;4878767;29;19932;-71
2022/08/05 13:24:14;;;;;;;;;;;;;;;;;;4876411;29;19988;-71
2022/08/05 13:26:41;;;;;;;;;;;;;;;;;;4876622;29;20469;-71
2022/08/05 13:29:08;;;;;;;;;;;;;;;;;;4881663;29;20311;-72
2022/08/05 13:31:35;;;;;;;;;;;;;;;;;;4879059;29;19963;-71
2022/08/05 13:34:23;;;;;;;;;;;;;;;;;;4876590;29;20011;-72
2022/08/05 13:36:52;;;;;;;;;;;;;;;;;;4880053;29;20022;-71
2022/08/05 13:39:19;;;;;;;;;;;;;;;;;;4876653;29;19928;-72
2022/08/05 13:41:51;;;;;;;;;;;;;;;;;;4875072;29;20015;-72
2022/08/05 13:44:18;;;;;;;;;;;;;;;;;;4876669;29;19932;-71
2022/08/05 13:46:45;;;;;;;;;;;;;;;;;;4882742;29;19938;-72
2022/08/05 13:49:32;;;;;;;;;;;;;;;;;;4872994;29;19954;-72
2022/08/05 13:52:02;;;;;;;;;;;;;;;;;;4879089;29;19935;-72
2022/08/05 13:54:30;;;;;;;;;;;;;;;;;;4878696;29;19928;-72
2022/08/05 13:56:57;;;;;;;;;;;;;;;;;;4873140;29;19936;-71
2022/08/05 13:59:24;;;;;;;;;;;;;;;;;;4872906;29;20346;-72
2022/08/05 14:01:53;;;;;;;;;;;;;;;;;;4875445;29;20027;-71
2022/08/05 14:07:15;;;;;;;;;;;;;;;;;;4874337;29;20421;-72
2022/08/05 14:10:02;;;;;;;;;;;;;;;;;;4875336;29;20410;-72
2022/08/05 14:12:29;;;;;;;;;;;;;;;;;;4875370;29;19942;-72
2022/08/05 14:14:59;;;;;;;;;;;;;;;;;;4874459;29;19934;-71
2022/08/05 14:17:26;;;;;;;;;;;;;;;;;;4875230;29;19942;-71
2022/08/05 14:19:54;;;;;;;;;;;;;;;;;;4874667;29;20030;-71
2022/08/05 14:22:27;;;;;;;;;;;;;;;;;;4875230;29;19972;-72
2022/08/05 14:24:56;;;;;;;;;;;;;;;;;;4874797;29;19931;-71
2022/08/05 14:27:23;;;;;;;;;;;;;;;;;;4873796;29;19931;-71
2022/08/05 14:29:51;;;;;;;;;;;;;;;;;;4875561;29;19928;-71
2022/08/05 14:32:18;;;;;;;;;;;;;;;;;;4873313;29;20018;-71
2022/08/05 14:34:53;;;;;;;;;;;;;;;;;;4873766;29;19956;-72
2022/08/05 14:37:22;;;;;;;;;;;;;;;;;;4877981;29;19936;-71
2022/08/05 14:39:50;;;;;;;;;;;;;;;;;;4880206;29;20336;-72
2022/08/05 14:42:23;;;;;;;;;;;;;;;;;;4877277;29;19942;-71
2022/08/05 14:44:51;;;;;;;;;;;;;;;;;;4886352;29;19935;-72
2022/08/05 14:47:18;;;;;;;;;;;;;;;;;;4893215;29;20700;-72
2022/08/05 14:50:05;;;;;;;;;;;;;;;;;;4893613;29;19942;-72
2022/08/05 14:52:43;;;;;;;;;;;;;;;;;;4893587;29;19939;-72
2022/08/05 14:55:19;;;;;;;;;;;;;;;;;;4893607;29;19932;-72
2022/08/05 14:57:46;;;;;;;;;;;;;;;;;;4892725;29;20435;-72
2022/08/05 15:00:20;;;;;;;;;;;;;;;;;;4893266;29;20030;-71
2022/08/05 15:02:48;;;;;;;;;;;;;;;;;;4879568;29;19927;-71
2022/08/05 15:05:15;;;;;;;;;;;;;;;;;;4878770;29;20001;-71
2022/08/05 15:07:42;;;;;;;;;;;;;;;;;;4879805;29;20277;-71
2022/08/05 15:10:30;;;;;;;;;;;;;;;;;;4882405;29;19932;-71
2022/08/05 15:12:58;;;;;;;;;;;;;;;;;;4880020;29;20230;-71
2022/08/05 15:15:30;;;;;;;;;;;;;;;;;;4881174;29;19935;-71
2022/08/05 15:18:17;;;;;;;;;;;;;;;;;;4882827;29;19946;-72
2022/08/05 15:20:45;;;;;;;;;;;;;;;;;;4875021;29;19932;-72
2022/08/05 15:23:12;;;;;;;;;;;;;;;;;;4870875;29;19988;-71
2022/08/05 15:25:39;;;;;;;;;;;;;;;;;;4877159;29;20389;-71
2022/08/05 15:28:19;;;;;;;;;;;;;;;;;;4879065;29;19965;-70
2022/08/05 15:30:46;;;;;;;;;;;;;;;;;;4882190;29;19946;-71
2022/08/05 15:33:13;;;;;;;;;;;;;;;;;;4880608;29;19932;-70
2022/08/05 15:36:00;;;;;;;;;;;;;;;;;;4884005;29;20352;-71
2022/08/05 15:38:29;;;;;;;;;;;;;;;;;;4880473;29;20435;-71
2022/08/05 15:41:02;;;;;;;;;;;;;;;;;;4878292;29;20421;-71
2022/08/05 15:43:49;;;;;;;;;;;;;;;;;;4876334;29;19967;-71
2022/08/05 15:46:17;;;;;;;;;;;;;;;;;;4875184;29;20399;-71
2022/08/05 15:48:44;;;;;;;;;;;;;;;;;;4877165;29;20341;-70
2022/08/05 15:51:21;;;;;;;;;;;;;;;;;;4877730;29;19927;-71
2022/08/05 15:53:50;;;;;;;;;;;;;;;;;;4872999;29;19927;-71
2022/08/05 15:56:18;;;;;;;;;;;;;;;;;;4875360;29;19938;-71
2022/08/05 15:58:45;;;;;;;;;;;;;;;;;;4890888;29;19934;-71
2022/08/05 16:01:12;;;;;;;;;;;;;;;;;;4877860;29;19935;-70
2022/08/05 16:03:43;;;;;;;;;;;;;;;;;;4869638;29;19939;-71
2022/08/05 16:06:10;;;;;;;;;;;;;;;;;;4875769;29;19937;-71
2022/08/05 16:08:38;;;;;;;;;;;;;;;;;;4871006;29;19938;-71
2022/08/05 16:11:06;;;;;;;;;;;;;;;;;;4876766;29;19987;-71
2022/08/05 16:13:33;;;;;;;;;;;;;;;;;;4873420;29;19931;-71
2022/08/05 16:16:01;;;;;;;;;;;;;;;;;;4876070;29;19942;-71
2022/08/05 16:18:29;;;;;;;;;;;;;;;;;;4878154;29;20214;-70
2022/08/05 16:20:58;;;;;;;;;;;;;;;;;;4877887;29;19936;-70
2022/08/05 16:23:27;;;;;;;;;;;;;;;;;;4876738;29;20583;-70
2022/08/05 16:25:54;;;;;;;;;;;;;;;;;;4876675;29;19932;-70
2022/08/05 16:28:23;;;;;;;;;;;;;;;;;;4878361;29;20422;-70
2022/08/05 16:30:51;;;;;;;;;;;;;;;;;;4878165;29;19935;-71
2022/08/05 16:33:21;;;;;;;;;;;;;;;;;;4876547;29;19936;-71
2022/08/05 16:35:48;;;;;;;;;;;;;;;;;;4875234;29;19931;-71
2022/08/05 16:38:19;;;;;;;;;;;;;;;;;;4878317;29;20034;-70
2022/08/05 16:40:52;;;;;;;;;;;;;;;;;;4877526;29;19931;-70
2022/08/05 16:43:26;;;;;;;;;;;;;;;;;;4875686;29;20596;-71
2022/08/05 16:45:56;;;;;;;;;;;;;;;;;;4876135;29;19993;-71
2022/08/05 16:48:35;;;;;;;;;;;;;;;;;;4877092;29;19942;-71
2022/08/05 16:51:02;;;;;;;;;;;;;;;;;;4878559;29;19932;-70
2022/08/05 16:53:35;;;;;;;;;;;;;;;;;;4878174;29;19942;-71
2022/08/05 16:56:22;;;;;;;;;;;;;;;;;;4875304;29;19932;-70
2022/08/05 16:58:49;;;;;;;;;;;;;;;;;;4874856;29;19932;-70
2022/08/05 17:01:16;;;;;;;;;;;;;;;;;;4876904;29;20030;-72
2022/08/05 17:03:45;;;;;;;;;;;;;;;;;;4878493;29;20395;-69
2022/08/05 17:06:12;;;;;;;;;;;;;;;;;;4879266;29;19931;-70
2022/08/05 17:08:40;;;;;;;;;;;;;;;;;;4879401;29;19931;-71
2022/08/05 17:11:18;;;;;;;;;;;;;;;;;;4878589;29;19932;-70
2022/08/05 17:13:45;;;;;;;;;;;;;;;;;;4879776;29;21276;-70
2022/08/05 17:16:13;;;;;;;;;;;;;;;;;;4880335;29;20030;-71
2022/08/05 17:18:58;;;;;;;;;;;;;;;;;;4877154;29;19984;-71
2022/08/05 17:21:25;;;;;;;;;;;;;;;;;;4877186;29;20427;-71